Time;durP1;ratioP1;P1;durP2;ratioP2;P2;SDS_P1;SDS_P2;PMS_P1;PMS_P2;Temp;Humidity;BMP_temperature;BMP_pressure;BME280_temperature;BME280_humidity;BME280_pressure;Samples;Min_cycle;Max_cycle;Signal;HPM_P1;HPM_P2
2022/08/04 00:00:09;;;;;;;;;4.00;3.33;;;;;;;;5037592;28;45405;-76
2022/08/04 00:02:35;;;;;;;;;3.00;2.67;;;;;;;;5038073;28;45390;-76
2022/08/04 00:05:02;;;;;;;;;3.00;3.00;;;;;;;;5044481;28;45390;-78
2022/08/04 00:07:45;;;;;;;;;5.00;4.00;;;;;;;;5057692;28;45452;-76
2022/08/04 00:10:12;;;;;;;;;5.33;2.00;;;;;;;;5057724;28;45440;-77
2022/08/04 00:12:44;;;;;;;;;4.00;4.00;;;;;;;;5057511;28;45391;-77
2022/08/04 00:15:10;;;;;;;;;3.33;3.33;;;;;;;;5057937;28;45459;-76
2022/08/04 00:17:44;;;;;;;;;4.33;2.67;;;;;;;;5057588;28;46152;-76
2022/08/04 00:20:11;;;;;;;;;2.00;2.00;;;;;;;;5057804;28;45555;-76
2022/08/04 00:22:38;;;;;;;;;5.33;2.00;;;;;;;;5057628;28;45456;-76
2022/08/04 00:25:04;;;;;;;;;4.67;3.00;;;;;;;;5057780;28;45286;-76
2022/08/04 00:27:30;;;;;;;;;3.00;3.00;;;;;;;;5057481;28;45333;-76
2022/08/04 00:29:56;;;;;;;;;4.33;3.00;;;;;;;;5057460;28;45348;-76
2022/08/04 00:32:21;;;;;;;;;4.00;2.00;;;;;;;;5057757;28;45382;-76
2022/08/04 00:34:47;;;;;;;;;2.67;2.67;;;;;;;;5075277;28;45591;-77
2022/08/04 00:37:13;;;;;;;;;13.00;10.00;;;;;;;;5079830;28;46092;-77
2022/08/04 00:39:38;;;;;;;;;4.00;4.00;;;;;;;;5080088;28;45245;-76
2022/08/04 00:42:16;;;;;;;;;9.33;4.33;;;;;;;;5079900;28;45455;-75
2022/08/04 00:45:00;;;;;;;;;4.00;2.00;;;;;;;;5079957;27;45321;-76
2022/08/04 00:47:39;;;;;;;;;5.33;3.00;;;;;;;;5079488;28;45374;-75
2022/08/04 00:50:07;;;;;;;;;3.00;2.67;;;;;;;;5079485;27;45413;-75
2022/08/04 00:52:38;;;;;;;;;2.00;2.00;;;;;;;;5079813;28;45445;-75
2022/08/04 00:55:09;;;;;;;;;5.33;2.00;;;;;;;;5079803;27;45318;-77
2022/08/04 00:57:43;;;;;;;;;3.00;3.00;;;;;;;;5061072;28;47596;-75
2022/08/04 01:00:11;;;;;;;;;3.00;2.00;;;;;;;;5079541;28;45223;-76
2022/08/04 01:02:42;;;;;;;;;4.33;4.00;;;;;;;;5079524;28;45276;-77
2022/08/04 01:05:26;;;;;;;;;4.67;4.67;;;;;;;;5086949;27;45228;-76
2022/08/04 01:08:00;;;;;;;;;2.67;2.67;;;;;;;;5099785;27;46304;-76
2022/08/04 01:10:39;;;;;;;;;3.00;3.00;;;;;;;;5099656;27;45246;-76
2022/08/04 01:13:16;;;;;;;;;3.67;3.00;;;;;;;;5099654;27;45274;-76
2022/08/04 01:15:52;;;;;;;;;2.00;2.00;;;;;;;;5099795;27;45410;-75
2022/08/04 01:18:22;;;;;;;;;1.67;1.67;;;;;;;;5099413;27;45380;-76
2022/08/04 01:20:53;;;;;;;;;2.00;2.00;;;;;;;;5099553;27;45232;-76
2022/08/04 01:23:43;;;;;;;;;5.00;5.00;;;;;;;;5098593;27;45269;-75
2022/08/04 01:26:28;;;;;;;;;2.33;2.00;;;;;;;;5099781;27;45446;-76
2022/08/04 01:28:53;;;;;;;;;3.67;2.33;;;;;;;;5035957;28;46192;-75
2022/08/04 01:31:29;;;;;;;;;5.67;5.00;;;;;;;;5036291;28;45337;-76
2022/08/04 01:33:57;;;;;;;;;4.00;2.00;;;;;;;;5019736;28;45443;-77
2022/08/04 01:36:23;;;;;;;;;5.33;4.00;;;;;;;;5036564;28;45743;-76
2022/08/04 01:38:49;;;;;;;;;1.33;1.33;;;;;;;;5036255;28;45541;-77
2022/08/04 01:41:16;;;;;;;;;3.00;2.00;;;;;;;;5036313;28;45442;-77
2022/08/04 01:43:43;;;;;;;;;1.00;1.00;;;;;;;;5036424;28;45262;-75
2022/08/04 01:46:15;;;;;;;;;2.67;1.67;;;;;;;;5036548;28;45345;-75
2022/08/04 01:48:45;;;;;;;;;3.00;2.00;;;;;;;;5036303;28;46030;-77
2022/08/04 01:51:10;;;;;;;;;2.67;1.00;;;;;;;;5036043;28;45552;-76
2022/08/04 01:53:41;;;;;;;;;3.33;1.67;;;;;;;;5036156;28;45349;-76
2022/08/04 01:56:07;;;;;;;;;2.00;0.00;;;;;;;;5036597;28;45216;-76
2022/08/04 01:58:33;;;;;;;;;3.00;2.00;;;;;;;;5035729;28;45473;-76
2022/08/04 02:01:03;;;;;;;;;1.00;1.00;;;;;;;;5036028;28;45311;-76
2022/08/04 02:03:30;;;;;;;;;1.33;1.00;;;;;;;;5035947;28;45458;-76
2022/08/04 02:06:03;;;;;;;;;3.33;2.33;;;;;;;;5065357;27;45528;-75
2022/08/04 02:08:40;;;;;;;;;3.00;1.67;;;;;;;;5098799;27;45338;-75
2022/08/04 02:11:13;;;;;;;;;2.00;2.00;;;;;;;;5098497;27;45225;-76
2022/08/04 02:13:51;;;;;;;;;0.00;0.00;;;;;;;;5098737;27;45316;-76
2022/08/04 02:16:29;;;;;;;;;4.00;2.00;;;;;;;;5098817;27;45164;-76
2022/08/04 02:19:13;;;;;;;;;7.33;3.00;;;;;;;;5098548;27;47128;-76
2022/08/04 02:21:39;;;;;;;;;1.00;1.00;;;;;;;;5098469;27;45404;-76
2022/08/04 02:24:06;;;;;;;;;3.00;1.33;;;;;;;;5098636;27;45300;-76
2022/08/04 02:26:32;;;;;;;;;2.33;2.33;;;;;;;;5098879;27;45246;-76
2022/08/04 02:28:57;;;;;;;;;6.00;1.00;;;;;;;;5098406;27;46344;-76
2022/08/04 02:31:25;;;;;;;;;2.00;2.00;;;;;;;;5098465;27;45320;-75
2022/08/04 02:33:59;;;;;;;;;2.67;1.33;;;;;;;;5098354;27;45414;-76
2022/08/04 02:36:30;;;;;;;;;3.00;2.00;;;;;;;;5098931;27;45346;-76
2022/08/04 02:38:58;;;;;;;;;2.00;2.00;;;;;;;;5098238;27;46680;-75
2022/08/04 02:41:25;;;;;;;;;4.00;3.00;;;;;;;;5098182;27;45324;-76
2022/08/04 02:43:52;;;;;;;;;2.33;2.33;;;;;;;;5098253;27;45421;-76
2022/08/04 02:46:18;;;;;;;;;4.33;4.00;;;;;;;;5098488;27;45235;-76
2022/08/04 02:48:45;;;;;;;;;4.67;3.00;;;;;;;;5098133;27;47144;-75
2022/08/04 02:51:12;;;;;;;;;4.00;4.00;;;;;;;;5079823;27;45808;-75
2022/08/04 02:53:38;;;;;;;;;2.00;2.00;;;;;;;;5098221;27;45324;-76
2022/08/04 02:56:05;;;;;;;;;3.33;3.33;;;;;;;;5098456;27;45317;-76
2022/08/04 02:58:33;;;;;;;;;5.67;3.33;;;;;;;;5097737;27;46225;-76
2022/08/04 03:00:58;;;;;;;;;1.67;1.67;;;;;;;;5097968;27;45420;-75
2022/08/04 03:03:27;;;;;;;;;2.00;2.00;;;;;;;;5098142;27;45347;-76
2022/08/04 03:06:13;;;;;;;;;4.00;3.00;;;;;;;;5098023;27;45273;-75
2022/08/04 03:08:41;;;;;;;;;2.67;2.67;;;;;;;;5034664;28;46691;-75
2022/08/04 03:11:25;;;;;;;;;2.33;1.33;;;;;;;;5034889;28;45465;-75
2022/08/04 03:13:52;;;;;;;;;2.00;2.00;;;;;;;;5035074;28;45262;-77
2022/08/04 03:16:23;;;;;;;;;3.00;3.00;;;;;;;;5035375;28;45551;-76
2022/08/04 03:19:00;;;;;;;;;3.67;2.00;;;;;;;;5034817;28;46211;-76
2022/08/04 03:21:43;;;;;;;;;3.00;2.00;;;;;;;;5035043;28;45316;-76
2022/08/04 03:24:09;;;;;;;;;4.33;2.00;;;;;;;;5034755;28;45406;-76
2022/08/04 03:26:54;;;;;;;;;4.67;3.00;;;;;;;;5035165;28;45381;-77
2022/08/04 03:29:25;;;;;;;;;2.00;2.00;;;;;;;;5034765;28;45442;-75
2022/08/04 03:31:53;;;;;;;;;2.00;2.00;;;;;;;;5034742;28;45605;-76
2022/08/04 03:34:18;;;;;;;;;3.67;1.00;;;;;;;;5034949;28;45353;-76
2022/08/04 03:36:49;;;;;;;;;3.33;2.00;;;;;;;;5035029;28;45498;-76
2022/08/04 03:39:29;;;;;;;;;4.00;2.00;;;;;;;;5034745;28;46234;-77
2022/08/04 03:41:55;;;;;;;;;3.00;1.67;;;;;;;;5034861;28;45939;-76
2022/08/04 03:44:29;;;;;;;;;1.00;1.00;;;;;;;;5018012;28;45299;-76
2022/08/04 03:47:24;;;;;;;;;2.00;1.67;;;;;;;;5098228;27;45347;-75
2022/08/04 03:49:55;;;;;;;;;2.00;2.00;;;;;;;;5037856;28;45346;-75
2022/08/04 03:55:23;;;;;;;;;2.67;2.67;;;;;;;;5038192;28;45376;-74
2022/08/04 03:57:51;;;;;;;;;4.00;2.67;;;;;;;;5038405;28;45266;-77
2022/08/04 04:00:17;;;;;;;;;2.67;2.00;;;;;;;;5037709;28;46490;-76
2022/08/04 04:02:54;;;;;;;;;4.67;2.00;;;;;;;;5037823;28;45358;-76
2022/08/04 04:05:35;;;;;;;;;3.67;3.00;;;;;;;;5037750;28;45386;-76
2022/08/04 04:08:18;;;;;;;;;5.00;3.33;;;;;;;;5021334;28;45728;-75
2022/08/04 04:11:13;;;;;;;;;2.00;2.00;;;;;;;;5020812;28;46713;-75
2022/08/04 04:13:44;;;;;;;;;1.00;1.00;;;;;;;;5037632;28;45445;-74
2022/08/04 04:16:15;;;;;;;;;2.33;1.00;;;;;;;;5037778;28;45515;-76
2022/08/04 04:18:49;;;;;;;;;2.00;2.00;;;;;;;;5037811;28;45520;-76
2022/08/04 04:21:18;;;;;;;;;1.00;1.00;;;;;;;;5037429;28;47181;-77
2022/08/04 04:23:59;;;;;;;;;2.67;1.33;;;;;;;;5037558;28;45437;-76
2022/08/04 04:26:24;;;;;;;;;2.00;2.00;;;;;;;;5073708;27;45355;-77
2022/08/04 04:29:12;;;;;;;;;1.33;1.33;;;;;;;;5100721;27;45290;-77
2022/08/04 04:31:56;;;;;;;;;4.00;4.00;;;;;;;;5036965;28;46569;-77
2022/08/04 04:34:24;;;;;;;;;2.00;2.00;;;;;;;;5037255;28;45460;-76
2022/08/04 04:36:52;;;;;;;;;2.00;1.00;;;;;;;;5037568;28;45463;-76
2022/08/04 04:39:31;;;;;;;;;2.00;1.00;;;;;;;;5037632;28;45522;-76
2022/08/04 04:42:11;;;;;;;;;1.00;1.00;;;;;;;;5037068;28;45511;-75
2022/08/04 04:44:48;;;;;;;;;2.67;2.00;;;;;;;;5037092;28;45287;-75
2022/08/04 04:47:23;;;;;;;;;4.00;2.33;;;;;;;;5037152;28;45475;-77
2022/08/04 04:49:48;;;;;;;;;4.00;2.33;;;;;;;;5037320;28;45425;-76
2022/08/04 04:52:19;;;;;;;;;3.00;3.00;;;;;;;;5036758;28;46618;-75
2022/08/04 04:54:51;;;;;;;;;5.67;5.67;;;;;;;;5036944;28;45516;-76
2022/08/04 04:57:19;;;;;;;;;2.00;2.00;;;;;;;;5036226;28;45445;-76
2022/08/04 04:59:50;;;;;;;;;1.33;1.33;;;;;;;;5036758;28;45457;-76
2022/08/04 05:02:28;;;;;;;;;1.67;1.67;;;;;;;;5036858;28;45542;-76
2022/08/04 05:05:02;;;;;;;;;3.00;2.00;;;;;;;;5042198;28;45289;-74
2022/08/04 05:07:34;;;;;;;;;4.33;2.00;;;;;;;;5057095;28;45435;-75
2022/08/04 05:10:09;;;;;;;;;5.67;2.67;;;;;;;;5079599;28;45293;-76
2022/08/04 05:12:50;;;;;;;;;4.33;3.00;;;;;;;;5079209;28;45283;-75
2022/08/04 05:15:16;;;;;;;;;2.00;2.00;;;;;;;;5079203;28;45487;-75
2022/08/04 05:17:44;;;;;;;;;3.00;2.67;;;;;;;;5079363;27;45151;-76
2022/08/04 05:20:13;;;;;;;;;11.33;11.33;;;;;;;;5079447;28;45392;-76
2022/08/04 05:22:41;;;;;;;;;4.33;4.00;;;;;;;;5078856;28;46231;-76
2022/08/04 05:25:11;;;;;;;;;4.33;4.33;;;;;;;;5079084;28;45316;-76
2022/08/04 05:27:39;;;;;;;;;3.33;3.00;;;;;;;;5079187;28;45351;-76
2022/08/04 05:30:05;;;;;;;;;6.00;4.00;;;;;;;;5079219;28;45503;-75
2022/08/04 05:32:36;;;;;;;;;5.00;5.00;;;;;;;;5078726;28;45514;-74
2022/08/04 05:35:08;;;;;;;;;7.00;4.00;;;;;;;;5078808;28;45498;-76
2022/08/04 05:37:33;;;;;;;;;3.00;2.00;;;;;;;;5078983;28;45449;-75
2022/08/04 05:40:02;;;;;;;;;5.00;4.33;;;;;;;;5079161;28;45431;-75
2022/08/04 05:42:29;;;;;;;;;4.33;4.00;;;;;;;;5078636;28;45286;-74
2022/08/04 05:44:54;;;;;;;;;5.00;4.33;;;;;;;;5078858;28;45318;-76
2022/08/04 05:47:20;;;;;;;;;7.00;5.67;;;;;;;;5078870;28;45344;-76
2022/08/04 05:49:46;;;;;;;;;6.00;6.00;;;;;;;;5079219;28;45463;-74
2022/08/04 05:52:12;;;;;;;;;6.00;6.00;;;;;;;;5078503;28;47131;-76
2022/08/04 05:54:39;;;;;;;;;8.00;8.00;;;;;;;;5078727;28;45207;-75
2022/08/04 05:57:05;;;;;;;;;8.33;4.00;;;;;;;;5078888;28;45251;-74
2022/08/04 05:59:33;;;;;;;;;7.33;5.67;;;;;;;;5078588;28;45316;-77
2022/08/04 06:01:59;;;;;;;;;7.33;6.00;;;;;;;;5078605;28;46243;-77
2022/08/04 06:04:33;;;;;;;;;7.33;6.00;;;;;;;;5079620;27;45551;-76
2022/08/04 06:06:58;;;;;;;;;7.33;5.67;;;;;;;;5098859;27;45488;-76
2022/08/04 06:09:24;;;;;;;;;11.00;8.33;;;;;;;;5098706;27;45363;-77
2022/08/04 06:11:50;;;;;;;;;9.00;6.00;;;;;;;;5098601;27;46456;-76
2022/08/04 06:14:17;;;;;;;;;6.33;4.67;;;;;;;;5098977;27;45351;-76
2022/08/04 06:16:43;;;;;;;;;108.50;107.75;;;;;;;;5098918;27;45373;-75
2022/08/04 06:19:10;;;;;;;;;12.67;9.67;;;;;;;;5099003;27;45250;-76
2022/08/04 06:21:40;;;;;;;;;4.00;4.00;;;;;;;;5098578;27;45415;-76
2022/08/04 06:24:09;;;;;;;;;13.67;9.00;;;;;;;;5098532;27;45471;-75
2022/08/04 06:26:35;;;;;;;;;11.67;9.00;;;;;;;;5098588;27;45221;-76
2022/08/04 06:29:01;;;;;;;;;7.00;7.00;;;;;;;;5098921;27;45167;-75
2022/08/04 06:31:45;;;;;;;;;10.00;8.67;;;;;;;;5098227;27;46459;-76
2022/08/04 06:34:11;;;;;;;;;12.33;10.33;;;;;;;;5098328;27;45372;-75
2022/08/04 06:36:39;;;;;;;;;13.67;10.00;;;;;;;;5098484;27;45429;-76
2022/08/04 06:39:05;;;;;;;;;13.00;9.33;;;;;;;;5098731;27;45381;-76
2022/08/04 06:41:31;;;;;;;;;10.33;7.67;;;;;;;;5098152;27;45372;-76
2022/08/04 06:44:04;;;;;;;;;16.33;11.00;;;;;;;;5098434;27;45193;-77
2022/08/04 06:46:31;;;;;;;;;16.00;12.33;;;;;;;;5098366;27;45421;-78
2022/08/04 06:48:56;;;;;;;;;10.67;10.00;;;;;;;;5098526;27;45340;-76
2022/08/04 06:51:22;;;;;;;;;14.33;10.00;;;;;;;;5097906;27;47139;-76
2022/08/04 06:53:47;;;;;;;;;18.00;18.00;;;;;;;;5098243;27;45252;-76
2022/08/04 06:56:14;;;;;;;;;11.00;9.67;;;;;;;;5098394;27;45327;-77
2022/08/04 06:58:39;;;;;;;;;14.00;12.00;;;;;;;;5098497;27;45290;-77
2022/08/04 07:01:05;;;;;;;;;14.33;12.00;;;;;;;;5097943;27;45292;-75
2022/08/04 07:03:31;;;;;;;;;10.00;10.00;;;;;;;;5098216;27;45295;-77
2022/08/04 07:05:56;;;;;;;;;14.67;11.00;;;;;;;;5097989;27;45315;-77
2022/08/04 07:08:22;;;;;;;;;16.00;13.33;;;;;;;;5098376;27;45344;-76
2022/08/04 07:10:48;;;;;;;;;10.67;8.33;;;;;;;;5097715;27;45468;-76
2022/08/04 07:13:14;;;;;;;;;10.00;9.33;;;;;;;;5097878;27;45550;-76
2022/08/04 07:15:40;;;;;;;;;16.00;9.00;;;;;;;;5097818;27;45403;-77
2022/08/04 07:18:05;;;;;;;;;12.33;11.00;;;;;;;;5097966;27;45392;-77
2022/08/04 07:20:31;;;;;;;;;13.67;9.00;;;;;;;;5097727;27;45301;-77
2022/08/04 07:22:58;;;;;;;;;11.00;9.00;;;;;;;;5101399;27;45507;-77
2022/08/04 07:25:24;;;;;;;;;11.67;11.67;;;;;;;;5101665;27;45229;-76
2022/08/04 07:27:49;;;;;;;;;9.00;9.00;;;;;;;;5101812;27;45324;-76
2022/08/04 07:30:16;;;;;;;;;11.33;9.33;;;;;;;;5101195;27;45190;-77
2022/08/04 07:32:43;;;;;;;;;11.33;8.33;;;;;;;;5101247;27;45324;-77
2022/08/04 07:35:09;;;;;;;;;9.33;9.33;;;;;;;;5101428;27;45382;-77
2022/08/04 07:37:34;;;;;;;;;10.33;8.00;;;;;;;;5101465;27;45364;-76
2022/08/04 07:40:00;;;;;;;;;12.00;10.33;;;;;;;;5101316;27;45439;-77
2022/08/04 07:42:26;;;;;;;;;11.67;10.00;;;;;;;;5101276;27;45270;-77
2022/08/04 07:44:51;;;;;;;;;8.00;6.00;;;;;;;;5101293;27;45341;-77
2022/08/04 07:47:16;;;;;;;;;4.33;4.33;;;;;;;;5101363;27;45819;-77
2022/08/04 07:49:42;;;;;;;;;9.33;8.00;;;;;;;;5100808;27;46128;-77
2022/08/04 07:52:07;;;;;;;;;11.33;8.67;;;;;;;;5100978;27;45229;-76
2022/08/04 07:54:34;;;;;;;;;9.67;8.67;;;;;;;;5101182;27;45276;-76
2022/08/04 07:56:59;;;;;;;;;14.67;7.33;;;;;;;;5100983;27;45379;-77
2022/08/04 07:59:24;;;;;;;;;10.00;8.33;;;;;;;;5100572;27;46675;-75
2022/08/04 08:01:50;;;;;;;;;13.67;13.67;;;;;;;;5100642;27;45210;-77
2022/08/04 08:04:15;;;;;;;;;9.00;7.33;;;;;;;;5101070;27;45261;-77
2022/08/04 08:06:41;;;;;;;;;14.67;9.33;;;;;;;;5080623;28;45155;-76
2022/08/04 08:09:17;;;;;;;;;8.00;8.00;;;;;;;;5080028;28;47370;-76
2022/08/04 08:11:44;;;;;;;;;8.00;6.33;;;;;;;;5079912;28;45337;-77
2022/08/04 08:14:09;;;;;;;;;8.33;8.33;;;;;;;;5080290;28;45315;-74
2022/08/04 08:16:35;;;;;;;;;9.00;8.33;;;;;;;;5080269;28;45335;-77
2022/08/04 08:19:00;;;;;;;;;8.00;7.33;;;;;;;;5080246;28;45583;-75
2022/08/04 08:21:25;;;;;;;;;8.00;6.67;;;;;;;;5080124;28;45351;-76
2022/08/04 08:23:51;;;;;;;;;10.33;8.67;;;;;;;;5080203;28;45368;-75
2022/08/04 08:26:16;;;;;;;;;9.33;8.67;;;;;;;;5080367;28;45226;-76
2022/08/04 08:28:42;;;;;;;;;10.33;10.33;;;;;;;;5079900;28;46369;-76
2022/08/04 08:31:07;;;;;;;;;11.67;10.33;;;;;;;;5079973;28;45455;-77
2022/08/04 08:33:33;;;;;;;;;14.67;10.67;;;;;;;;5079719;28;45204;-76
2022/08/04 08:36:13;;;;;;;;;11.00;9.33;;;;;;;;5080157;28;45391;-76
2022/08/04 08:38:54;;;;;;;;;12.67;11.33;;;;;;;;5079838;28;46641;-76
2022/08/04 08:41:37;;;;;;;;;12.33;10.33;;;;;;;;5079693;28;45175;-77
2022/08/04 08:44:31;;;;;;;;;14.00;12.00;;;;;;;;5079686;28;45316;-77
2022/08/04 08:46:59;;;;;;;;;8.00;8.00;;;;;;;;5079793;28;45395;-77
2022/08/04 08:49:43;;;;;;;;;16.33;14.00;;;;;;;;5079481;28;45346;-77
2022/08/04 08:52:14;;;;;;;;;13.00;11.67;;;;;;;;5079405;28;45228;-74
2022/08/04 08:54:57;;;;;;;;;18.67;12.00;;;;;;;;5079831;28;45318;-76
2022/08/04 08:57:41;;;;;;;;;15.33;12.00;;;;;;;;5079910;28;45308;-76
2022/08/04 09:00:09;;;;;;;;;13.33;12.33;;;;;;;;5079241;28;45727;-76
2022/08/04 09:02:46;;;;;;;;;14.33;12.33;;;;;;;;5079353;28;45527;-75
2022/08/04 09:05:14;;;;;;;;;14.00;13.00;;;;;;;;5087094;27;45380;-77
2022/08/04 09:07:39;;;;;;;;;12.33;9.33;;;;;;;;5100010;27;45517;-76
2022/08/04 09:10:09;;;;;;;;;12.67;11.00;;;;;;;;5099642;27;46356;-77
2022/08/04 09:12:40;;;;;;;;;12.67;10.00;;;;;;;;5099445;27;45348;-77
2022/08/04 09:15:11;;;;;;;;;12.33;10.67;;;;;;;;5099665;27;45373;-75
2022/08/04 09:17:39;;;;;;;;;10.67;10.67;;;;;;;;5099935;27;45459;-77
2022/08/04 09:20:06;;;;;;;;;10.67;10.67;;;;;;;;5099501;27;45318;-77
2022/08/04 09:22:42;;;;;;;;;12.00;9.00;;;;;;;;5099657;27;45486;-77
2022/08/04 09:25:10;;;;;;;;;16.33;13.67;;;;;;;;5099587;27;45306;-76
2022/08/04 09:27:51;;;;;;;;;15.00;14.00;;;;;;;;5099816;27;45394;-78
2022/08/04 09:30:22;;;;;;;;;12.33;11.67;;;;;;;;5099533;27;45309;-76
2022/08/04 09:32:55;;;;;;;;;15.67;14.33;;;;;;;;5099412;27;45322;-76
2022/08/04 09:35:33;;;;;;;;;16.33;13.67;;;;;;;;5099430;27;45302;-77
2022/08/04 09:38:07;;;;;;;;;21.67;16.00;;;;;;;;5099300;27;45301;-75
2022/08/04 09:41:04;;;;;;;;;13.67;13.00;;;;;;;;5099287;27;45418;-75
2022/08/04 09:43:36;;;;;;;;;18.00;18.00;;;;;;;;5015387;28;45421;-76
2022/08/04 09:46:12;;;;;;;;;16.33;13.00;;;;;;;;5016115;28;45625;-77
2022/08/04 09:48:52;;;;;;;;;13.33;10.33;;;;;;;;5016713;28;45264;-77
2022/08/04 09:51:24;;;;;;;;;14.33;14.00;;;;;;;;5015883;28;46700;-77
2022/08/04 09:53:53;;;;;;;;;15.33;14.33;;;;;;;;5015942;28;45398;-76
2022/08/04 09:56:34;;;;;;;;;15.67;11.33;;;;;;;;5016200;28;45357;-77
2022/08/04 09:59:02;;;;;;;;;19.33;17.67;;;;;;;;5016215;28;45539;-76
2022/08/04 10:01:29;;;;;;;;;23.67;18.00;;;;;;;;5015744;28;45407;-77
2022/08/04 10:03:57;;;;;;;;;14.00;13.33;;;;;;;;5015939;28;45493;-78
2022/08/04 10:06:44;;;;;;;;;15.67;12.67;;;;;;;;5015846;28;45307;-75
2022/08/04 10:09:18;;;;;;;;;18.00;16.33;;;;;;;;5016321;28;45416;-76
2022/08/04 10:11:43;;;;;;;;;14.00;13.00;;;;;;;;5015510;28;45269;-76
2022/08/04 10:14:12;;;;;;;;;19.67;16.67;;;;;;;;5015893;28;45558;-76
2022/08/04 10:16:53;;;;;;;;;17.00;14.33;;;;;;;;5015716;28;45436;-77
2022/08/04 10:19:30;;;;;;;;;17.33;11.67;;;;;;;;5064089;27;45649;-76
2022/08/04 10:22:10;;;;;;;;;16.33;13.67;;;;;;;;5098166;27;46092;-78
2022/08/04 10:24:41;;;;;;;;;12.00;12.00;;;;;;;;5098571;27;45330;-77
2022/08/04 10:27:20;;;;;;;;;15.00;15.00;;;;;;;;5080465;27;45296;-76
2022/08/04 10:29:46;;;;;;;;;17.33;16.00;;;;;;;;5098875;27;45529;-77
2022/08/04 10:32:28;;;;;;;;;17.33;16.00;;;;;;;;5098125;27;46810;-77
2022/08/04 10:34:53;;;;;;;;;19.33;18.00;;;;;;;;5098314;27;45452;-77
2022/08/04 10:37:30;;;;;;;;;13.33;12.67;;;;;;;;5098634;27;45371;-77
2022/08/04 10:42:55;;;;;;;;;16.00;13.67;;;;;;;;5098218;27;45438;-76
2022/08/04 10:45:24;;;;;;;;;14.33;13.00;;;;;;;;5098254;27;45221;-77
2022/08/04 10:48:01;;;;;;;;;17.00;16.00;;;;;;;;5098197;27;45365;-77
2022/08/04 10:50:27;;;;;;;;;15.33;13.33;;;;;;;;5098379;27;45449;-76
2022/08/04 10:52:57;;;;;;;;;17.33;14.33;;;;;;;;5098083;27;45305;-77
2022/08/04 10:55:27;;;;;;;;;17.67;15.67;;;;;;;;5098134;27;45367;-77
2022/08/04 10:57:58;;;;;;;;;13.00;13.00;;;;;;;;5098154;27;45244;-77
2022/08/04 11:00:25;;;;;;;;;13.67;12.67;;;;;;;;5098027;27;45441;-76
2022/08/04 11:03:02;;;;;;;;;17.33;14.00;;;;;;;;5097711;27;47132;-76
2022/08/04 11:05:34;;;;;;;;;14.33;14.00;;;;;;;;5097737;27;45506;-79
2022/08/04 11:08:04;;;;;;;;;15.33;13.33;;;;;;;;5098178;27;45320;-77
2022/08/04 11:10:34;;;;;;;;;13.33;11.00;;;;;;;;5097943;27;45499;-75
2022/08/04 11:13:03;;;;;;;;;12.00;11.00;;;;;;;;5097706;27;46751;-75
2022/08/04 11:15:40;;;;;;;;;15.00;12.67;;;;;;;;5097799;27;45418;-76
2022/08/04 11:18:09;;;;;;;;;9.67;9.00;;;;;;;;5097832;27;45477;-76
2022/08/04 11:20:34;;;;;;;;;6.33;6.33;;;;;;;;5098189;27;45320;-76
2022/08/04 11:23:05;;;;;;;;;13.33;11.67;;;;;;;;5097773;27;45915;-77
2022/08/04 11:25:49;;;;;;;;;14.33;11.67;;;;;;;;5097755;27;45305;-77
2022/08/04 11:28:14;;;;;;;;;9.00;9.00;;;;;;;;5097951;27;45217;-77
2022/08/04 11:30:40;;;;;;;;;15.00;13.00;;;;;;;;5098040;27;45226;-77
2022/08/04 11:33:08;;;;;;;;;14.00;10.67;;;;;;;;5097324;27;46449;-77
2022/08/04 11:35:46;;;;;;;;;9.67;9.67;;;;;;;;5097489;27;45292;-77
2022/08/04 11:38:23;;;;;;;;;10.67;9.00;;;;;;;;5097634;27;45416;-76
2022/08/04 11:40:50;;;;;;;;;8.67;8.00;;;;;;;;5097762;27;45427;-77
2022/08/04 11:43:21;;;;;;;;;12.67;11.00;;;;;;;;5097430;27;47378;-76
2022/08/04 11:45:53;;;;;;;;;24.00;23.33;;;;;;;;5097351;27;45327;-77
2022/08/04 11:48:24;;;;;;;;;10.33;10.33;;;;;;;;5097337;27;45307;-77
2022/08/04 11:50:50;;;;;;;;;8.00;8.00;;;;;;;;5097692;27;45421;-77
2022/08/04 11:53:19;;;;;;;;;7.00;7.00;;;;;;;;5097140;27;46296;-78
2022/08/04 11:55:47;;;;;;;;;11.33;10.33;;;;;;;;5097299;27;45371;-77
2022/08/04 11:58:13;;;;;;;;;10.00;7.33;;;;;;;;5097549;27;45492;-76
2022/08/04 12:00:41;;;;;;;;;10.00;10.00;;;;;;;;5097454;27;45205;-76
2022/08/04 12:03:14;;;;;;;;;8.33;8.33;;;;;;;;5097244;27;46353;-76
2022/08/04 12:05:48;;;;;;;;;9.67;8.00;;;;;;;;5096951;27;45388;-77
2022/08/04 12:08:22;;;;;;;;;8.67;8.67;;;;;;;;5099868;27;45222;-77
2022/08/04 12:11:06;;;;;;;;;10.67;10.67;;;;;;;;5100910;27;45388;-77
2022/08/04 12:13:31;;;;;;;;;13.00;7.00;;;;;;;;5100487;27;47426;-76
2022/08/04 12:15:56;;;;;;;;;10.00;8.00;;;;;;;;5100602;27;45414;-76
2022/08/04 12:18:57;;;;;;;;;12.67;8.00;;;;;;;;5100787;27;45498;-77
2022/08/04 12:21:26;;;;;;;;;8.00;8.00;;;;;;;;5017875;28;45422;-76
2022/08/04 12:23:55;;;;;;;;;6.00;6.00;;;;;;;;5017390;28;45491;-77
2022/08/04 12:26:24;;;;;;;;;8.33;7.00;;;;;;;;5017568;28;45319;-77
2022/08/04 12:28:51;;;;;;;;;13.00;10.00;;;;;;;;5017414;28;45350;-77
2022/08/04 12:31:19;;;;;;;;;6.67;5.33;;;;;;;;5017875;28;45412;-73
2022/08/04 12:33:50;;;;;;;;;7.33;7.33;;;;;;;;5017168;28;46943;-77
2022/08/04 12:36:42;;;;;;;;;7.67;7.00;;;;;;;;5017166;28;45381;-77
2022/08/04 12:39:14;;;;;;;;;5.67;4.33;;;;;;;;5015302;28;45604;-77
2022/08/04 12:41:44;;;;;;;;;5.33;5.33;;;;;;;;5017680;28;45485;-76
2022/08/04 12:44:11;;;;;;;;;9.00;8.00;;;;;;;;5017192;28;45422;-74
2022/08/04 12:46:37;;;;;;;;;6.00;6.00;;;;;;;;5016844;28;45483;-78
2022/08/04 12:49:03;;;;;;;;;8.67;7.00;;;;;;;;5017668;28;45372;-77
2022/08/04 12:51:35;;;;;;;;;8.00;6.00;;;;;;;;5017339;28;45329;-77
2022/08/04 12:54:02;;;;;;;;;5.00;5.00;;;;;;;;5016849;28;45550;-77
2022/08/04 12:56:28;;;;;;;;;6.33;6.00;;;;;;;;5095808;27;45186;-77
2022/08/04 12:59:00;;;;;;;;;8.33;7.33;;;;;;;;5100165;27;45367;-76
2022/08/04 13:01:26;;;;;;;;;5.67;5.67;;;;;;;;5100152;27;45352;-76
2022/08/04 13:03:54;;;;;;;;;7.33;6.00;;;;;;;;5099649;27;45579;-77
2022/08/04 13:06:23;;;;;;;;;7.67;7.67;;;;;;;;5099486;27;45423;-77
2022/08/04 13:08:48;;;;;;;;;8.67;6.00;;;;;;;;5099799;27;45411;-77
2022/08/04 13:11:14;;;;;;;;;6.67;6.67;;;;;;;;5099825;27;45506;-77
2022/08/04 13:13:41;;;;;;;;;5.00;3.00;;;;;;;;5099545;27;46640;-77
2022/08/04 13:16:08;;;;;;;;;6.00;6.00;;;;;;;;5099760;27;45316;-77
2022/08/04 13:18:35;;;;;;;;;63.50;51.25;;;;;;;;5098371;27;45373;-77
2022/08/04 13:21:09;;;;;;;;;5.33;5.00;;;;;;;;5099778;27;45451;-77
2022/08/04 13:23:36;;;;;;;;;8.33;5.33;;;;;;;;5099332;27;46136;-77
2022/08/04 13:26:03;;;;;;;;;6.33;5.33;;;;;;;;5099494;27;45303;-77
2022/08/04 13:28:30;;;;;;;;;6.33;6.33;;;;;;;;5099434;27;45423;-75
2022/08/04 13:30:57;;;;;;;;;5.67;5.00;;;;;;;;5099795;27;45237;-78
2022/08/04 13:33:28;;;;;;;;;5.00;5.00;;;;;;;;5099071;27;48839;-77
2022/08/04 13:35:55;;;;;;;;;4.00;4.00;;;;;;;;5099256;27;45412;-77
2022/08/04 13:38:22;;;;;;;;;4.00;4.00;;;;;;;;5099653;27;45387;-76
2022/08/04 13:40:48;;;;;;;;;6.33;5.00;;;;;;;;5099543;27;45229;-77
2022/08/04 13:43:27;;;;;;;;;4.67;4.67;;;;;;;;5098962;27;46095;-77
2022/08/04 13:46:04;;;;;;;;;4.67;4.67;;;;;;;;5099424;27;45224;-77
2022/08/04 13:48:34;;;;;;;;;4.33;4.33;;;;;;;;5099129;27;45285;-77
2022/08/04 13:51:08;;;;;;;;;5.00;3.67;;;;;;;;5099447;27;45337;-77
2022/08/04 13:53:34;;;;;;;;;3.67;3.00;;;;;;;;5098922;27;45502;-77
2022/08/04 13:56:00;;;;;;;;;5.00;3.67;;;;;;;;5098904;27;45379;-78
2022/08/04 13:58:28;;;;;;;;;8.33;5.00;;;;;;;;5099081;27;45364;-77
2022/08/04 14:00:58;;;;;;;;;7.00;6.00;;;;;;;;5099385;27;45254;-76
2022/08/04 14:03:35;;;;;;;;;6.00;4.00;;;;;;;;5098546;27;46741;-77
2022/08/04 14:06:12;;;;;;;;;4.67;4.67;;;;;;;;5098659;27;45286;-76
2022/08/04 14:08:46;;;;;;;;;7.00;6.00;;;;;;;;5098897;27;45522;-76
2022/08/04 14:11:12;;;;;;;;;13.50;10.50;;;;;;;;5099272;27;45263;-77
2022/08/04 14:13:38;;;;;;;;;9.00;8.33;;;;;;;;5098641;27;45982;-77
2022/08/04 14:16:17;;;;;;;;;9.67;8.67;;;;;;;;5098487;27;45430;-76
2022/08/04 14:18:43;;;;;;;;;7.33;6.33;;;;;;;;5098698;27;45296;-77
2022/08/04 14:21:10;;;;;;;;;8.33;6.33;;;;;;;;5098904;27;45213;-77
2022/08/04 14:23:55;;;;;;;;;4.00;4.00;;;;;;;;5098014;27;45327;-75
2022/08/04 14:26:23;;;;;;;;;19.33;17.67;;;;;;;;5098046;27;45256;-78
2022/08/04 14:28:49;;;;;;;;;12.00;10.33;;;;;;;;5098623;27;45348;-75
2022/08/04 14:31:16;;;;;;;;;8.67;8.67;;;;;;;;5098256;27;45321;-75
2022/08/04 14:33:42;;;;;;;;;8.00;8.00;;;;;;;;5080066;27;46486;-77
2022/08/04 14:36:08;;;;;;;;;7.00;5.67;;;;;;;;5098065;27;45325;-76
2022/08/04 14:38:50;;;;;;;;;8.67;6.00;;;;;;;;5098516;27;45293;-77
2022/08/04 14:41:17;;;;;;;;;19.33;18.33;;;;;;;;5098611;27;45409;-77
2022/08/04 14:43:46;;;;;;;;;23.00;18.67;;;;;;;;5098090;27;46687;-77
2022/08/04 14:46:12;;;;;;;;;13.00;12.00;;;;;;;;5098278;27;45342;-76
2022/08/04 14:48:38;;;;;;;;;11.33;10.33;;;;;;;;5098338;27;45527;-77
2022/08/04 14:51:04;;;;;;;;;33.67;29.00;;;;;;;;5098526;27;45557;-77
2022/08/04 14:53:30;;;;;;;;;16.33;14.33;;;;;;;;5097885;27;45394;-78
2022/08/04 14:55:57;;;;;;;;;17.00;10.67;;;;;;;;5098227;27;45440;-78
2022/08/04 14:58:26;;;;;;;;;7.67;7.67;;;;;;;;5098171;27;45424;-77